Time;durP1;ratioP1;P1;durP2;ratioP2;P2;SDS_P1;SDS_P2;PMS_P1;PMS_P2;Temp;Humidity;BMP_temperature;BMP_pressure;BME280_temperature;BME280_humidity;BME280_pressure;Samples;Min_cycle;Max_cycle;Signal;HPM_P1;HPM_P2
2022/05/29 00:00:15;;;;;;;5.30;2.80;;;;;;;5.40;100.00;101629.75;1043274;28;20773;-76
2022/05/29 00:00:47;;;;;;;6.80;2.63;;;;;;;5.30;100.00;101630.91;1043161;28;20306;-75
2022/05/29 00:01:19;;;;;;;5.20;2.22;;;;;;;5.15;100.00;101634.16;1039554;28;20658;-75
2022/05/29 00:01:51;;;;;;;10.95;3.13;;;;;;;5.03;100.00;101629.34;1039265;28;20345;-75
2022/05/29 00:02:23;;;;;;;8.25;3.60;;;;;;;5.01;100.00;101632.16;1039950;28;21090;-75
2022/05/29 00:02:54;;;;;;;8.73;2.75;;;;;;;5.14;100.00;101632.50;1043876;28;21034;-75
2022/05/29 00:03:26;;;;;;;6.80;3.17;;;;;;;5.29;100.00;101635.38;1047815;28;20341;-75
2022/05/29 00:03:57;;;;;;;10.63;2.95;;;;;;;5.26;100.00;101631.25;1047448;28;20298;-75
2022/05/29 00:04:29;;;;;;;8.05;3.28;;;;;;;5.59;100.00;101628.63;1047249;28;20290;-75
2022/05/29 00:05:01;;;;;;;8.00;3.45;;;;;;;5.62;100.00;101624.84;1048098;28;20302;-75
2022/05/29 00:05:35;;;;;;;7.47;3.38;;;;;;;5.60;100.00;101627.66;1043069;28;20821;-75
2022/05/29 00:06:08;;;;;;;7.47;2.90;;;;;;;5.78;100.00;101625.69;1039110;28;20708;-75
2022/05/29 00:06:41;;;;;;;6.65;2.60;;;;;;;5.67;100.00;101633.91;1039246;28;20299;-76
2022/05/29 00:07:16;;;;;;;12.25;3.25;;;;;;;5.36;100.00;101624.97;1037754;28;20312;-75
2022/05/29 00:07:49;;;;;;;8.13;3.17;;;;;;;5.72;100.00;101621.03;1044382;28;20307;-75
2022/05/29 00:08:34;;;;;;;10.77;3.42;;;;;;;5.70;100.00;101623.00;1043124;28;20376;-75
2022/05/29 00:09:07;;;;;;;5.68;2.33;;;;;;;5.95;100.00;101623.88;1043299;28;20299;-75
2022/05/29 00:09:41;;;;;;;9.68;3.15;;;;;;;5.77;100.00;101624.03;1041711;28;20299;-75
2022/05/29 00:10:13;;;;;;;8.32;2.92;;;;;;;5.75;100.00;101626.03;1041960;28;20303;-75
2022/05/29 00:10:45;;;;;;;4.85;2.90;;;;;;;5.89;100.00;101622.72;1039255;28;20296;-75
2022/05/29 00:11:17;;;;;;;5.78;2.78;;;;;;;6.02;100.00;101621.38;1040116;28;20328;-76
2022/05/29 00:11:49;;;;;;;6.22;3.15;;;;;;;6.08;100.00;101621.56;1043962;28;20694;-75
2022/05/29 00:12:22;;;;;;;6.60;2.75;;;;;;;6.15;100.00;101621.72;1048197;28;20294;-76
2022/05/29 00:12:53;;;;;;;7.10;2.83;;;;;;;6.11;100.00;101617.75;1047268;28;20303;-75
2022/05/29 00:13:25;;;;;;;9.43;3.47;;;;;;;6.13;100.00;101618.41;1047336;28;20695;-75
2022/05/29 00:14:00;;;;;;;6.80;3.00;;;;;;;6.29;100.00;101623.66;1043423;28;20295;-76
2022/05/29 00:14:38;;;;;;;5.22;3.00;;;;;;;6.16;100.00;101623.34;1044603;28;20299;-75
2022/05/29 00:15:11;;;;;;;5.18;2.40;;;;;;;6.07;100.00;101619.09;1047591;28;20371;-75
2022/05/29 00:15:43;;;;;;;4.93;2.55;;;;;;;5.68;100.00;101614.44;1045181;28;20303;-76
2022/05/29 00:16:14;;;;;;;4.50;2.80;;;;;;;5.57;100.00;101617.41;1047154;28;20302;-75
2022/05/29 00:16:46;;;;;;;5.40;2.67;;;;;;;5.41;100.00;101612.91;1047569;28;20302;-75
2022/05/29 00:17:19;;;;;;;4.93;2.67;;;;;;;5.58;100.00;101619.06;1046199;28;20290;-75
2022/05/29 00:17:51;;;;;;;5.03;2.55;;;;;;;5.32;100.00;101618.38;1043349;28;20310;-75
2022/05/29 00:18:22;;;;;;;6.20;2.90;;;;;;;5.14;100.00;101615.84;1043482;28;20299;-75
2022/05/29 00:18:54;;;;;;;10.05;3.50;;;;;;;5.02;100.00;101612.69;1038607;28;20304;-75
2022/05/29 00:19:26;;;;;;;3.72;2.53;;;;;;;5.43;100.00;101612.75;1034910;28;20311;-75
2022/05/29 00:19:57;;;;;;;4.10;2.60;;;;;;;5.36;100.00;101624.97;1035643;28;20297;-75
2022/05/29 00:20:29;;;;;;;8.00;2.75;;;;;;;5.33;100.00;101620.03;1039468;28;20755;-75
2022/05/29 00:21:00;;;;;;;6.25;2.60;;;;;;;5.39;100.00;101611.44;1043725;28;20299;-75
2022/05/29 00:21:34;;;;;;;6.15;2.97;;;;;;;5.47;100.00;101622.00;1043461;28;20836;-75
2022/05/29 00:22:08;;;;;;;3.97;2.42;;;;;;;5.35;100.00;101612.75;1039178;28;20300;-75
2022/05/29 00:22:39;;;;;;;8.73;2.83;;;;;;;5.47;100.00;101608.78;1035032;28;20309;-75
2022/05/29 00:23:11;;;;;;;6.72;3.13;;;;;;;5.28;100.00;101612.59;1035839;28;20659;-75
2022/05/29 00:23:42;;;;;;;6.13;3.08;;;;;;;5.38;100.00;101612.44;1040115;28;20296;-75
2022/05/29 00:24:15;;;;;;;5.65;2.83;;;;;;;5.15;100.00;101610.41;1039829;28;20300;-74
2022/05/29 00:24:49;;;;;;;7.85;2.63;;;;;;;5.26;100.00;101609.28;1038836;28;20300;-75
2022/05/29 00:25:20;;;;;;;7.85;3.22;;;;;;;5.35;100.00;101610.13;1035307;28;20299;-75
2022/05/29 00:25:52;;;;;;;5.68;2.90;;;;;;;5.38;100.00;101613.25;1036047;28;20399;-75
2022/05/29 00:26:24;;;;;;;10.73;3.20;;;;;;;5.42;100.00;101603.19;1035779;28;20304;-75
2022/05/29 00:26:56;;;;;;;6.18;2.78;;;;;;;5.36;100.00;101609.13;1040059;28;20350;-75
2022/05/29 00:27:27;;;;;;;5.10;2.30;;;;;;;5.37;100.00;101611.59;1038723;28;20299;-75
2022/05/29 00:27:59;;;;;;;9.57;2.95;;;;;;;5.37;100.00;101608.13;1039463;28;20303;-75
2022/05/29 00:28:30;;;;;;;9.75;3.10;;;;;;;5.21;100.00;101611.59;1039356;28;20701;-75
2022/05/29 00:29:02;;;;;;;6.03;3.15;;;;;;;5.21;100.00;101607.13;1034528;28;20296;-75
2022/05/29 00:29:35;;;;;;;5.25;3.10;;;;;;;5.11;100.00;101611.72;1035494;28;20697;-75
2022/05/29 00:30:09;;;;;;;5.75;2.90;;;;;;;5.28;100.00;101602.03;1040013;28;20299;-75
2022/05/29 00:30:41;;;;;;;9.15;3.30;;;;;;;5.13;100.00;101607.09;1040525;28;20292;-75
2022/05/29 00:31:13;;;;;;;7.47;3.03;;;;;;;5.48;100.00;101607.84;1042941;28;20685;-75
2022/05/29 00:31:45;;;;;;;8.90;3.08;;;;;;;5.46;100.00;101604.50;1039046;28;20370;-74
2022/05/29 00:32:17;;;;;;;5.45;2.80;;;;;;;5.64;100.00;101604.34;1040286;28;20300;-75
2022/05/29 00:32:48;;;;;;;4.60;2.85;;;;;;;5.27;100.00;101603.84;1043060;28;20665;-75
2022/05/29 00:33:20;;;;;;;6.95;4.18;;;;;;;5.38;100.00;101602.69;1043248;28;20294;-74
2022/05/29 00:33:51;;;;;;;10.30;3.00;;;;;;;5.34;100.00;101605.81;1043601;28;20291;-75
2022/05/29 00:34:23;;;;;;;10.70;3.72;;;;;;;5.22;100.00;101606.16;1043516;28;20299;-75
2022/05/29 00:34:54;;;;;;;6.43;2.70;;;;;;;5.41;100.00;101601.53;1043636;28;20429;-76
2022/05/29 00:35:26;;;;;;;8.73;3.13;;;;;;;5.44;100.00;101606.47;1043693;28;20452;-74
2022/05/29 00:35:58;;;;;;;7.28;3.42;;;;;;;5.72;100.00;101599.06;1043241;28;20728;-75
2022/05/29 00:36:37;;;;;;;6.72;3.65;;;;;;;5.39;100.00;101603.50;1039040;28;20714;-76
2022/05/29 00:37:10;;;;;;;6.07;2.78;;;;;;;5.34;100.00;101606.66;1038454;28;20312;-76
2022/05/29 00:37:42;;;;;;;15.75;3.30;;;;;;;5.30;100.00;101599.22;1041171;28;20288;-76
2022/05/29 00:38:13;;;;;;;7.82;3.13;;;;;;;5.63;100.00;101603.53;1038958;28;20322;-76
2022/05/29 00:38:46;;;;;;;6.07;3.00;;;;;;;5.38;100.00;101594.75;1039127;28;20725;-77
2022/05/29 00:39:18;;;;;;;8.02;3.58;;;;;;;5.41;100.00;101601.53;1035775;28;20663;-76
2022/05/29 00:39:53;;;;;;;10.30;3.28;;;;;;;5.30;100.00;101593.94;1039973;28;20785;-76
2022/05/29 00:40:32;;;;;;;8.82;3.22;;;;;;;5.43;100.00;101594.25;1034774;28;20703;-76
2022/05/29 00:41:17;;;;;;;6.57;3.03;;;;;;;5.72;100.00;101597.25;1036904;28;20394;-76
2022/05/29 00:41:51;;;;;;;6.97;3.00;;;;;;;5.70;100.00;101595.75;1035130;28;20312;-76
2022/05/29 00:42:24;;;;;;;8.98;3.15;;;;;;;5.46;100.00;101591.28;1030959;28;20308;-76
2022/05/29 00:42:55;;;;;;;9.35;3.45;;;;;;;5.78;100.00;101599.25;1029697;28;20313;-76
2022/05/29 00:43:30;;;;;;;10.18;3.47;;;;;;;6.10;100.00;101594.94;1034017;28;20301;-76
2022/05/29 00:44:13;;;;;;;7.20;3.20;;;;;;;6.32;100.00;101596.88;1032392;28;20834;-75
2022/05/29 00:44:45;;;;;;;5.63;3.10;;;;;;;6.22;100.00;101598.03;1037324;28;20677;-76
2022/05/29 00:45:21;;;;;;;10.85;3.47;;;;;;;6.18;100.00;101600.22;1039337;28;20334;-76
2022/05/29 00:46:00;;;;;;;8.20;2.80;;;;;;;6.22;100.00;101598.03;1040414;28;20305;-76
2022/05/29 00:46:33;;;;;;;7.05;2.75;;;;;;;6.22;100.00;101596.22;1043491;28;20288;-76
2022/05/29 00:47:14;;;;;;;6.15;3.50;;;;;;;6.04;100.00;101592.97;1038948;28;20307;-76
2022/05/29 00:47:46;;;;;;;8.32;3.42;;;;;;;6.06;100.00;101597.09;1038926;28;20366;-76
2022/05/29 00:48:19;;;;;;;8.90;2.78;;;;;;;5.94;100.00;101597.59;1036375;28;20659;-76
2022/05/29 00:48:51;;;;;;;10.15;3.53;;;;;;;6.20;100.00;101592.94;1037116;28;20293;-75
2022/05/29 00:49:31;;;;;;;11.50;3.05;;;;;;;6.40;100.00;101594.19;1035273;28;20835;-75
2022/05/29 00:50:02;;;;;;;6.20;2.80;;;;;;;6.58;100.00;101593.97;1032681;28;20305;-76
2022/05/29 00:50:34;;;;;;;8.50;3.35;;;;;;;6.67;100.00;101594.75;1036637;28;20715;-76
2022/05/29 00:51:11;;;;;;;10.35;2.42;;;;;;;6.70;100.00;101591.78;1036113;28;20320;-76
2022/05/29 00:52:00;;;;;;;5.40;3.03;;;;;;;6.71;100.00;101590.78;1032328;28;20309;-75
2022/05/29 00:52:31;;;;;;;8.82;3.05;;;;;;;6.68;100.00;101596.41;1031157;28;20300;-76
2022/05/29 00:53:03;;;;;;;7.20;3.30;;;;;;;6.86;100.00;101593.53;1034226;28;20790;-76
2022/05/29 00:53:35;;;;;;;9.60;2.97;;;;;;;6.89;100.00;101594.00;1040987;28;20291;-76
2022/05/29 00:54:07;;;;;;;7.10;3.63;;;;;;;6.92;100.00;101596.31;1035517;28;20799;-76
2022/05/29 00:54:49;;;;;;;8.10;3.35;;;;;;;6.99;100.00;101594.59;1039120;28;20319;-75
2022/05/29 00:55:23;;;;;;;8.35;3.13;;;;;;;7.01;100.00;101592.59;1035134;28;20308;-76
2022/05/29 00:56:02;;;;;;;10.70;3.78;;;;;;;7.16;100.00;101590.03;1039634;28;20296;-76
2022/05/29 00:56:34;;;;;;;7.18;3.20;;;;;;;7.19;100.00;101594.16;1038941;28;20343;-77
2022/05/29 00:57:06;;;;;;;8.23;3.80;;;;;;;7.18;100.00;101592.53;1036770;28;20316;-76
2022/05/29 00:57:44;;;;;;;11.13;3.03;;;;;;;7.21;100.00;101590.34;1038667;28;20300;-77
2022/05/29 00:58:16;;;;;;;8.38;2.92;;;;;;;7.23;100.00;101591.00;1040811;28;20299;-76
2022/05/29 00:58:47;;;;;;;7.78;3.13;;;;;;;7.23;100.00;101587.50;1043051;28;20299;-76
2022/05/29 00:59:24;;;;;;;6.85;4.85;;;;;;;7.25;100.00;101583.69;1039113;28;20300;-76
2022/05/29 00:59:59;;;;;;;7.40;3.45;;;;;;;7.24;100.00;101586.50;1040096;28;20316;-76
2022/05/29 01:00:32;;;;;;;10.80;4.07;;;;;;;7.31;100.00;101582.97;1043003;28;20311;-76
2022/05/29 01:01:04;;;;;;;8.80;3.33;;;;;;;7.26;100.00;101581.84;1043313;28;20299;-75
2022/05/29 01:01:36;;;;;;;6.82;3.50;;;;;;;7.36;100.00;101571.84;1040132;28;20304;-75
2022/05/29 01:02:07;;;;;;;6.40;3.42;;;;;;;7.35;100.00;101578.13;1039047;28;21184;-75
2022/05/29 01:02:39;;;;;;;10.07;3.20;;;;;;;7.43;100.00;101580.75;1035375;28;20305;-76
2022/05/29 01:03:11;;;;;;;9.77;3.30;;;;;;;7.42;100.00;101579.09;1035285;28;20822;-75
2022/05/29 01:03:42;;;;;;;11.70;3.53;;;;;;;7.51;100.00;101575.38;1035615;28;20579;-75
2022/05/29 01:04:14;;;;;;;10.55;3.58;;;;;;;7.56;100.00;101580.97;1039756;28;20303;-75
2022/05/29 01:04:46;;;;;;;8.98;4.00;;;;;;;7.53;100.00;101583.16;1043901;28;20299;-75
2022/05/29 01:05:19;;;;;;;5.43;3.13;;;;;;;7.50;100.00;101579.03;1043985;28;20708;-76
2022/05/29 01:05:51;;;;;;;5.75;3.03;;;;;;;7.35;100.00;101588.75;1044321;28;20685;-75
2022/05/29 01:06:22;;;;;;;5.05;2.95;;;;;;;7.30;100.00;101580.50;1043983;28;20785;-74
2022/05/29 01:06:54;;;;;;;4.53;3.28;;;;;;;7.33;100.00;101580.16;1043939;28;20318;-75
2022/05/29 01:07:26;;;;;;;8.52;3.30;;;;;;;7.37;100.00;101581.44;1039824;28;20315;-75
2022/05/29 01:08:12;;;;;;;6.10;2.55;;;;;;;7.60;100.00;101578.78;1036396;28;20300;-75
2022/05/29 01:08:44;;;;;;;5.28;2.58;;;;;;;7.58;100.00;101578.97;1039990;28;20295;-76
2022/05/29 01:09:16;;;;;;;5.72;2.97;;;;;;;7.56;100.00;101578.31;1042289;28;20288;-76
2022/05/29 01:09:49;;;;;;;7.28;3.25;;;;;;;7.58;100.00;101578.13;1041998;28;20300;-75
2022/05/29 01:10:23;;;;;;;7.18;3.28;;;;;;;7.64;100.00;101578.25;1039458;28;20336;-75
2022/05/29 01:11:00;;;;;;;6.22;3.20;;;;;;;7.58;100.00;101568.34;1040053;28;20300;-76
2022/05/29 01:12:30;;;;;;;5.13;3.20;;;;;;;7.26;100.00;101571.25;1041976;28;20292;-76
2022/05/29 01:13:07;;;;;;;5.82;2.65;;;;;;;7.42;100.00;101571.16;1035550;28;20710;-75
2022/05/29 01:13:42;;;;;;;6.07;3.13;;;;;;;7.51;100.00;101577.22;1031375;28;20316;-75
2022/05/29 01:14:51;;;;;;;4.32;2.65;;;;;;;7.30;100.00;101575.19;1031352;28;20312;-74
2022/05/29 01:15:54;;;;;;;6.32;2.95;;;;;;;7.42;100.00;101574.63;1025136;28;20302;-75
2022/05/29 01:16:58;;;;;;;7.03;2.65;;;;;;;7.49;100.00;101573.91;1030922;28;20301;-75
2022/05/29 01:18:06;;;;;;;4.70;2.80;;;;;;;7.62;100.00;101567.00;1027518;28;20313;-75
2022/05/29 01:19:01;;;;;;;7.78;3.17;;;;;;;7.53;100.00;101576.03;1035444;28;20668;-75
2022/05/29 01:19:54;;;;;;;4.35;2.42;;;;;;;7.60;100.00;101571.66;1034998;28;20305;-74
2022/05/29 01:21:02;;;;;;;4.35;2.05;;;;;;;7.57;100.00;101572.00;1035769;28;20317;-75
2022/05/29 01:22:10;;;;;;;5.82;2.33;;;;;;;7.64;100.00;101564.16;1044023;28;20303;-75
2022/05/29 01:23:08;;;;;;;7.97;2.10;;;;;;;7.70;100.00;101566.94;1043761;28;20322;-76
2022/05/29 01:23:55;;;;;;;2.67;2.28;;;;;;;7.67;100.00;101572.59;1043818;28;20432;-76
2022/05/29 01:24:51;;;;;;;5.70;2.50;;;;;;;7.74;100.00;101570.88;1041622;28;20308;-75
2022/05/29 01:25:49;;;;;;;4.05;2.33;;;;;;;7.82;100.00;101563.84;1043868;28;20306;-75
2022/05/29 01:26:45;;;;;;;5.85;2.83;;;;;;;7.72;100.00;101562.28;1041772;28;20300;-75
2022/05/29 01:27:29;;;;;;;7.93;2.60;;;;;;;7.83;100.00;101565.50;1043999;28;20291;-75
2022/05/29 01:28:47;;;;;;;3.30;2.08;;;;;;;7.75;100.00;101567.22;1043868;28;20299;-75
2022/05/29 01:29:23;;;;;;;4.43;2.78;;;;;;;7.82;100.00;101563.84;1044465;28;20674;-75
2022/05/29 01:29:55;;;;;;;4.70;2.58;;;;;;;7.87;100.00;101566.78;1043880;28;20681;-75
2022/05/29 01:30:28;;;;;;;7.20;2.40;;;;;;;7.93;100.00;101569.53;1043767;28;20298;-74
2022/05/29 01:31:18;;;;;;;8.02;3.65;;;;;;;7.93;100.00;101563.38;1039421;28;20537;-75
2022/05/29 01:31:53;;;;;;;3.05;2.33;;;;;;;7.95;100.00;101569.38;1039453;28;20303;-75
2022/05/29 01:32:45;;;;;;;6.55;2.58;;;;;;;8.00;100.00;101567.00;1035484;28;20127;-75
2022/05/29 01:33:29;;;;;;;11.95;2.50;;;;;;;7.84;100.00;101569.78;1031646;28;20393;-75
2022/05/29 01:34:12;;;;;;;12.02;3.42;;;;;;;8.09;100.00;101565.06;1036031;28;20401;-75
2022/05/29 01:34:51;;;;;;;6.13;2.80;;;;;;;8.08;100.00;101558.94;1040000;28;20295;-75
2022/05/29 01:35:31;;;;;;;9.40;2.28;;;;;;;7.98;100.00;101561.88;1042506;28;20302;-76
2022/05/29 01:36:17;;;;;;;9.00;3.58;;;;;;;7.87;100.00;101559.63;1039792;28;20374;-75
2022/05/29 01:36:52;;;;;;;6.05;2.40;;;;;;;8.04;100.00;101568.28;1035648;28;20312;-76
2022/05/29 01:37:29;;;;;;;6.53;2.55;;;;;;;8.06;100.00;101563.59;1038989;28;20369;-75
2022/05/29 01:38:07;;;;;;;7.10;3.33;;;;;;;7.94;100.00;101563.25;1039265;28;20311;-75
2022/05/29 01:39:00;;;;;;;11.38;4.03;;;;;;;8.00;100.00;101561.69;1042344;28;20296;-76
2022/05/29 01:39:35;;;;;;;6.85;2.17;;;;;;;8.01;100.00;101566.81;1035544;28;20834;-75
2022/05/29 01:40:14;;;;;;;2.95;2.22;;;;;;;8.11;100.00;101560.41;1035564;28;20359;-75
2022/05/29 01:40:53;;;;;;;7.00;2.40;;;;;;;8.09;100.00;101560.59;1035704;28;20300;-75
2022/05/29 01:41:33;;;;;;;4.60;2.20;;;;;;;8.04;100.00;101560.31;1037303;28;20311;-75
2022/05/29 01:42:50;;;;;;;6.68;3.65;;;;;;;8.22;100.00;101558.13;1039002;28;20295;-75
2022/05/29 01:43:31;;;;;;;4.07;2.00;;;;;;;8.22;100.00;101550.19;1027121;28;20304;-76
2022/05/29 01:44:05;;;;;;;6.63;2.88;;;;;;;8.20;100.00;101554.00;1033107;28;20301;-77
2022/05/29 01:44:52;;;;;;;6.53;2.67;;;;;;;8.07;100.00;101551.97;1043775;28;20402;-75
2022/05/29 01:45:53;;;;;;;3.08;2.30;;;;;;;8.10;100.00;101556.91;1044207;28;20306;-75
2022/05/29 01:46:33;;;;;;;8.18;2.25;;;;;;;8.12;100.00;101548.78;1039186;28;20638;-75
2022/05/29 01:47:13;;;;;;;5.80;2.40;;;;;;;8.22;100.00;101550.19;1036829;28;20097;-75
2022/05/29 01:48:14;;;;;;;5.75;2.60;;;;;;;8.24;100.00;101553.47;1037235;28;20300;-77
2022/05/29 01:48:51;;;;;;;4.65;2.80;;;;;;;8.27;100.00;101553.09;1032655;28;20047;-78
2022/05/29 01:49:30;;;;;;;5.63;2.33;;;;;;;8.36;100.00;101546.72;1043213;28;20052;-78
2022/05/29 01:50:08;;;;;;;4.90;2.70;;;;;;;8.38;100.00;101553.66;1043553;28;20665;-78
2022/05/29 01:50:51;;;;;;;8.43;2.60;;;;;;;8.23;100.00;101545.69;1039643;28;20298;-78
2022/05/29 01:51:26;;;;;;;6.38;2.55;;;;;;;8.20;100.00;101540.72;1045903;28;20676;-78
2022/05/29 01:52:04;;;;;;;12.05;2.75;;;;;;;8.11;100.00;101542.66;1042368;28;20381;-78
2022/05/29 01:52:46;;;;;;;8.45;2.60;;;;;;;8.06;100.00;101539.72;1040018;28;20915;-78
2022/05/29 01:53:22;;;;;;;8.95;2.70;;;;;;;8.00;100.00;101545.78;1037949;28;20303;-78
2022/05/29 01:54:02;;;;;;;6.78;2.88;;;;;;;8.15;100.00;101543.09;1041564;28;20776;-78
2022/05/29 01:54:37;;;;;;;4.90;2.20;;;;;;;8.17;100.00;101541.91;1033829;28;20297;-78
2022/05/29 01:55:23;;;;;;;4.72;2.85;;;;;;;8.10;100.00;101546.31;1033774;28;20294;-78
2022/05/29 01:55:59;;;;;;;6.80;3.00;;;;;;;8.17;100.00;101541.09;1038369;28;20715;-78
2022/05/29 01:56:34;;;;;;;6.32;2.70;;;;;;;8.18;100.00;101543.56;1038817;28;20303;-79
2022/05/29 01:57:10;;;;;;;6.47;2.60;;;;;;;8.17;100.00;101543.75;1035387;28;20293;-78
2022/05/29 01:57:44;;;;;;;8.32;2.58;;;;;;;8.16;100.00;101540.25;1033867;28;20703;-78
2022/05/29 01:58:19;;;;;;;4.55;1.85;;;;;;;8.22;100.00;101536.09;1036927;28;20387;-78
2022/05/29 01:58:57;;;;;;;4.95;2.45;;;;;;;8.11;100.00;101537.34;1033191;28;20298;-78
2022/05/29 01:59:39;;;;;;;3.22;1.85;;;;;;;8.18;100.00;101538.25;1032215;28;20300;-78
2022/05/29 02:00:11;;;;;;;5.75;2.70;;;;;;;8.24;100.00;101544.69;1038525;28;20304;-78
2022/05/29 02:00:46;;;;;;;6.28;2.65;;;;;;;8.19;100.00;101539.91;1045248;28;20302;-79
2022/05/29 02:01:19;;;;;;;5.90;3.00;;;;;;;8.22;100.00;101536.09;1042376;28;20295;-78
2022/05/29 02:01:57;;;;;;;10.40;3.33;;;;;;;8.22;100.00;101534.25;1037843;28;20391;-78
2022/05/29 02:02:34;;;;;;;4.57;2.33;;;;;;;8.12;100.00;101533.69;1035932;28;20300;-78
2022/05/29 02:03:15;;;;;;;7.90;3.70;;;;;;;8.07;100.00;101530.75;1035510;28;20400;-78
2022/05/29 02:03:48;;;;;;;8.52;2.90;;;;;;;8.16;100.00;101534.13;1042207;28;20334;-78
2022/05/29 02:04:22;;;;;;;4.32;2.47;;;;;;;8.24;100.00;101537.53;1031504;28;20309;-77
2022/05/29 02:04:56;;;;;;;6.25;3.05;;;;;;;8.17;100.00;101541.91;1032854;28;20323;-78
2022/05/29 02:05:32;;;;;;;5.38;2.28;;;;;;;8.12;100.00;101532.84;1033861;28;20653;-77
2022/05/29 02:06:09;;;;;;;11.68;3.17;;;;;;;8.23;100.00;101535.06;1035196;28;20293;-78
2022/05/29 02:07:47;;;;;;;6.05;2.25;;;;;;;8.16;100.00;101532.31;1042053;28;20300;-78
2022/05/29 02:08:44;;;;;;;5.13;2.38;;;;;;;8.17;100.00;101536.59;1040411;28;20385;-77
2022/05/29 02:09:18;;;;;;;9.35;2.80;;;;;;;8.23;100.00;101535.91;1035803;28;20304;-78
2022/05/29 02:10:04;;;;;;;12.10;2.72;;;;;;;8.18;100.00;101526.81;1037505;28;20351;-78
2022/05/29 02:10:38;;;;;;;5.43;2.35;;;;;;;8.22;100.00;101534.25;1039772;28;20659;-78
2022/05/29 02:11:24;;;;;;;8.00;3.53;;;;;;;8.33;100.00;101531.16;1039256;28;20628;-78
2022/05/29 02:11:59;;;;;;;9.13;3.30;;;;;;;8.41;100.00;101530.22;1037015;28;20406;-77
2022/05/29 02:12:31;;;;;;;6.35;2.42;;;;;;;8.39;100.00;101528.75;1035973;28;20706;-78
2022/05/29 02:13:21;;;;;;;6.35;2.20;;;;;;;8.41;100.00;101530.22;1038237;28;20323;-78
2022/05/29 02:14:07;;;;;;;6.28;2.10;;;;;;;8.34;100.00;101527.50;1033552;28;20301;-78
2022/05/29 02:14:45;;;;;;;4.50;1.95;;;;;;;8.40;100.00;101525.09;1035378;28;20053;-78
2022/05/29 02:15:19;;;;;;;5.03;2.38;;;;;;;8.34;100.00;101529.31;1039493;28;20296;-78
2022/05/29 02:15:57;;;;;;;9.65;2.75;;;;;;;8.35;100.00;101523.81;1043205;28;20303;-78
2022/05/29 02:16:41;;;;;;;11.50;2.88;;;;;;;8.41;100.00;101527.56;1039672;28;20291;-78
2022/05/29 02:17:17;;;;;;;6.90;2.22;;;;;;;8.41;100.00;101529.41;1045441;28;20294;-78
2022/05/29 02:17:53;;;;;;;3.88;2.47;;;;;;;8.40;100.00;101536.53;1039670;28;20288;-77
2022/05/29 02:18:30;;;;;;;5.30;2.45;;;;;;;8.46;100.00;101529.66;1042923;28;20295;-78
2022/05/29 02:19:05;;;;;;;7.90;2.53;;;;;;;8.40;100.00;101525.91;1038052;28;20292;-78
2022/05/29 02:19:42;;;;;;;6.93;2.30;;;;;;;8.40;100.00;101530.41;1039774;28;20352;-78
2022/05/29 02:20:18;;;;;;;7.93;2.75;;;;;;;8.36;100.00;101524.66;1041597;28;20307;-78
2022/05/29 02:20:52;;;;;;;5.32;2.40;;;;;;;8.33;100.00;101533.81;1040246;28;20300;-78
2022/05/29 02:21:47;;;;;;;8.75;2.40;;;;;;;8.28;100.00;101530.84;1037062;28;20292;-76
2022/05/29 02:22:25;;;;;;;11.85;2.95;;;;;;;8.29;100.00;101535.16;1039140;28;20292;-78
2022/05/29 02:23:07;;;;;;;7.85;2.67;;;;;;;8.23;100.00;101530.59;1039413;28;20662;-78
2022/05/29 02:23:49;;;;;;;9.45;2.78;;;;;;;8.17;100.00;101526.00;1042032;28;20669;-78
2022/05/29 02:24:25;;;;;;;5.65;2.10;;;;;;;8.24;100.00;101532.22;1039907;28;20306;-78
2022/05/29 02:25:02;;;;;;;9.25;2.55;;;;;;;8.21;100.00;101527.25;1037827;28;20302;-78
2022/05/29 02:25:35;;;;;;;6.25;2.10;;;;;;;8.13;100.00;101524.72;1035485;28;20312;-78
2022/05/29 02:26:12;;;;;;;9.10;2.85;;;;;;;8.11;100.00;101515.28;1034116;28;20364;-78
2022/05/29 02:27:12;;;;;;;5.40;1.92;;;;;;;8.15;100.00;101521.88;1040594;28;20307;-78
2022/05/29 02:27:53;;;;;;;6.68;2.20;;;;;;;8.18;100.00;101517.03;1047487;28;21108;-78
2022/05/29 02:28:30;;;;;;;;;;;;;;;8.23;100.00;101525.28;1046667;28;20298;-78
2022/05/29 02:29:07;;;;;;;4.85;2.28;;;;;;;8.16;100.00;101518.22;1039489;28;19925;-78
2022/05/29 02:29:40;;;;;;;5.38;2.13;;;;;;;8.34;100.00;101510.75;1038643;28;20307;-78
2022/05/29 02:30:12;;;;;;;7.55;2.33;;;;;;;8.45;100.00;101520.88;1035123;28;21101;-78
2022/05/29 02:30:48;;;;;;;6.75;2.33;;;;;;;8.43;100.00;101506.97;1035782;28;20308;-78
2022/05/29 02:31:48;;;;;;;9.32;2.88;;;;;;;8.35;100.00;101515.88;1030932;28;20352;-78
2022/05/29 02:32:57;;;;;;;3.03;1.88;;;;;;;8.34;100.00;101516.88;1036253;28;20297;-78
2022/05/29 02:33:40;;;;;;;5.90;2.05;;;;;;;8.40;100.00;101507.34;1042695;28;20343;-78
2022/05/29 02:34:49;;;;;;;5.40;2.30;;;;;;;8.29;100.00;101508.63;1044295;28;20904;-78
2022/05/29 02:35:34;;;;;;;8.10;2.83;;;;;;;8.34;100.00;101510.75;1047345;28;20800;-77
2022/05/29 02:36:24;;;;;;;6.38;2.38;;;;;;;8.38;100.00;101501.41;1042132;28;20662;-78
2022/05/29 02:37:43;;;;;;;6.57;2.28;;;;;;;8.32;100.00;101505.59;1039357;28;20319;-78
2022/05/29 02:38:36;;;;;;;5.20;1.92;;;;;;;8.34;100.00;101506.25;1043307;28;20303;-78
2022/05/29 02:39:23;;;;;;;4.63;1.90;;;;;;;8.29;100.00;101508.63;1047646;28;20310;-78
2022/05/29 02:40:21;;;;;;;7.68;3.05;;;;;;;8.33;100.00;101498.44;1045251;28;20298;-78
2022/05/29 02:40:59;;;;;;;5.68;2.10;;;;;;;8.33;100.00;101501.94;1046192;28;20303;-78
2022/05/29 02:41:36;;;;;;;6.80;2.58;;;;;;;8.34;100.00;101492.16;1039769;28;20316;-78
2022/05/29 02:42:28;;;;;;;7.25;2.25;;;;;;;8.24;100.00;101500.38;1042026;28;20307;-78
2022/05/29 02:43:36;;;;;;;7.15;2.33;;;;;;;8.42;100.00;101485.91;1041980;28;20279;-79
2022/05/29 02:44:21;;;;;;;5.78;2.25;;;;;;;8.42;100.00;101492.03;1043658;28;20329;-78
2022/05/29 02:45:12;;;;;;;9.05;2.15;;;;;;;8.35;100.00;101491.16;1047481;28;20294;-78
2022/05/29 02:46:04;;;;;;;11.80;3.80;;;;;;;8.35;100.00;101486.66;1043284;28;20299;-78
2022/05/29 02:46:44;;;;;;;4.65;3.25;;;;;;;8.29;100.00;101492.69;1039625;28;20057;-78
2022/05/29 02:47:37;;;;;;;7.80;2.78;;;;;;;8.36;100.00;101490.13;1034124;28;20312;-78
2022/05/29 02:48:38;;;;;;;6.70;2.10;;;;;;;8.41;100.00;101494.88;1040171;28;20658;-78
2022/05/29 02:49:35;;;;;;;6.78;2.17;;;;;;;8.36;100.00;101493.63;1047681;28;20310;-78
2022/05/29 02:50:29;;;;;;;8.35;2.42;;;;;;;8.47;100.00;101491.47;1047811;28;20040;-78
2022/05/29 02:51:10;;;;;;;5.78;1.85;;;;;;;8.40;100.00;101494.06;1041800;28;20299;-77
2022/05/29 02:51:48;;;;;;;8.70;2.30;;;;;;;8.42;100.00;101494.69;1043749;28;20801;-78
2022/05/29 02:52:21;;;;;;;3.58;2.08;;;;;;;8.41;100.00;101494.88;1037956;28;20127;-78
2022/05/29 02:52:53;;;;;;;6.63;2.22;;;;;;;8.48;100.00;101506.41;1042478;28;20314;-78
2022/05/29 02:53:25;;;;;;;4.95;2.28;;;;;;;8.55;100.00;101496.69;1039362;28;20311;-78
2022/05/29 02:53:57;;;;;;;5.82;2.63;;;;;;;8.43;100.00;101499.00;1037583;28;21055;-78
2022/05/29 02:54:31;;;;;;;8.40;2.08;;;;;;;8.28;100.00;101491.03;1035687;28;20305;-78
2022/05/29 02:55:02;;;;;;;6.82;2.30;;;;;;;8.40;100.00;101493.25;1036998;28;20348;-78
2022/05/29 02:55:34;;;;;;;5.88;1.98;;;;;;;8.39;100.00;101494.25;1043895;28;20303;-78
2022/05/29 02:56:06;;;;;;;9.05;2.88;;;;;;;8.48;100.00;101498.44;1044744;28;20306;-78
2022/05/29 02:56:38;;;;;;;7.03;2.42;;;;;;;8.54;100.00;101492.41;1047455;28;20294;-78
2022/05/29 02:57:10;;;;;;;6.47;2.47;;;;;;;8.50;100.00;101494.63;1047633;28;20310;-78
2022/05/29 02:57:41;;;;;;;5.40;3.92;;;;;;;8.53;100.00;101496.06;1047238;28;20784;-78
2022/05/29 02:58:19;;;;;;;4.90;2.33;;;;;;;8.40;100.00;101487.94;1043677;28;20342;-78
2022/05/29 02:58:53;;;;;;;5.22;1.85;;;;;;;8.47;100.00;101489.66;1042964;28;20310;-79
2022/05/29 02:59:31;;;;;;;6.05;3.00;;;;;;;8.48;100.00;101496.59;1042568;28;20292;-78
2022/05/29 03:00:11;;;;;;;12.25;3.80;;;;;;;8.52;100.00;101491.78;1042712;28;20299;-78
2022/05/29 03:00:54;;;;;;;6.00;2.80;;;;;;;8.67;100.00;101496.03;1037527;28;20336;-78
2022/05/29 03:01:45;;;;;;;3.92;1.98;;;;;;;8.38;100.00;101496.09;1035124;28;20037;-78